createdAt,value
2023-05-06T00:00:22.930Z,1.92
2023-05-06T00:02:50.191Z,1.80
2023-05-06T00:05:20.466Z,2.00
2023-05-06T00:07:47.841Z,1.83
2023-05-06T00:10:15.780Z,2.03
2023-05-06T00:12:42.950Z,2.00
2023-05-06T00:15:10.574Z,1.90
2023-05-06T00:17:38.214Z,2.10
2023-05-06T00:20:06.128Z,2.03
2023-05-06T00:22:33.558Z,2.17
2023-05-06T00:25:00.732Z,2.00
2023-05-06T00:27:28.191Z,2.05
2023-05-06T00:29:56.670Z,1.70
2023-05-06T00:32:23.905Z,1.90
2023-05-06T00:34:51.419Z,1.77
2023-05-06T00:37:18.608Z,1.63
2023-05-06T00:39:45.762Z,1.60
2023-05-06T00:42:12.964Z,1.98
2023-05-06T00:44:40.212Z,1.80
2023-05-06T00:47:08.293Z,1.88
2023-05-06T00:49:35.489Z,1.77
2023-05-06T00:52:02.819Z,1.90
2023-05-06T00:54:30.743Z,1.67
2023-05-06T00:56:57.919Z,1.70
2023-05-06T00:59:25.096Z,2.10
2023-05-06T01:01:53.914Z,1.90
2023-05-06T01:04:23.865Z,1.80
2023-05-06T01:07:11.832Z,1.60
2023-05-06T01:10:09.260Z,1.90
2023-05-06T01:12:58.081Z,1.90
2023-05-06T01:17:55.043Z,1.95
2023-05-06T01:20:22.575Z,1.70
2023-05-06T01:22:50.778Z,1.90
2023-05-06T01:25:21.870Z,1.60
2023-05-06T01:27:52.081Z,1.50
2023-05-06T01:30:20.370Z,2.05
2023-05-06T01:32:55.889Z,1.92
2023-05-06T01:35:55.509Z,1.83
2023-05-06T01:39:00.057Z,1.85
2023-05-06T01:41:28.280Z,1.58
2023-05-06T01:43:55.876Z,1.83
2023-05-06T01:46:23.390Z,1.45
2023-05-06T01:48:53.744Z,1.80
2023-05-06T01:51:22.271Z,1.77
2023-05-06T01:53:49.441Z,1.63
2023-05-06T01:56:17.066Z,1.55
2023-05-06T01:58:44.236Z,1.60
2023-05-06T02:01:11.508Z,1.92
2023-05-06T02:03:38.768Z,1.70
2023-05-06T02:06:06.059Z,1.80
2023-05-06T02:08:33.611Z,1.83
2023-05-06T02:11:00.767Z,1.42
2023-05-06T02:13:27.976Z,1.58
2023-05-06T02:15:55.344Z,1.50
2023-05-06T02:18:22.619Z,1.70
2023-05-06T02:20:49.778Z,1.40
2023-05-06T02:23:16.995Z,1.52
2023-05-06T02:25:44.225Z,1.80
2023-05-06T02:28:11.414Z,1.65
2023-05-06T02:30:38.583Z,1.63
2023-05-06T02:33:05.778Z,1.50
2023-05-06T02:35:33.089Z,1.50
2023-05-06T02:38:00.615Z,1.70
2023-05-06T02:40:27.810Z,1.60
2023-05-06T02:42:55.127Z,1.70
2023-05-06T02:45:22.531Z,1.60
2023-05-06T02:47:49.983Z,1.50
2023-05-06T02:50:17.422Z,1.42
2023-05-06T02:52:44.605Z,1.63
2023-05-06T02:55:11.977Z,1.45
2023-05-06T02:57:39.298Z,1.48
2023-05-06T03:00:07.127Z,1.77
2023-05-06T03:02:34.318Z,1.35
2023-05-06T03:05:04.416Z,1.58
2023-05-06T03:07:31.755Z,1.58
2023-05-06T03:09:58.933Z,1.77
2023-05-06T03:12:26.707Z,1.40
2023-05-06T03:14:53.875Z,1.40
2023-05-06T03:17:21.053Z,1.50
2023-05-06T03:19:50.467Z,1.50
2023-05-06T03:22:17.644Z,1.15
2023-05-06T03:24:44.943Z,1.45
2023-05-06T03:27:12.198Z,1.50
2023-05-06T03:29:39.387Z,1.45
2023-05-06T03:32:06.766Z,1.52
2023-05-06T03:34:33.946Z,1.30
2023-05-06T03:37:01.100Z,1.40
2023-05-06T03:39:28.302Z,1.40
2023-05-06T03:41:55.559Z,1.30
2023-05-06T03:44:22.744Z,1.40
2023-05-06T03:46:49.949Z,1.45
2023-05-06T03:49:17.250Z,1.42
2023-05-06T03:51:44.478Z,1.75
2023-05-06T03:54:11.761Z,1.40
2023-05-06T03:56:38.936Z,1.55
2023-05-06T03:59:06.130Z,1.38
2023-05-06T04:01:33.370Z,1.63
2023-05-06T04:04:00.623Z,1.40
2023-05-06T04:06:27.826Z,1.80
2023-05-06T04:08:54.997Z,1.30
2023-05-06T04:11:22.227Z,1.73
2023-05-06T04:13:49.435Z,1.50
2023-05-06T04:16:16.827Z,1.23
2023-05-06T04:18:44.458Z,1.83
2023-05-06T04:21:14.255Z,1.40
2023-05-06T04:23:42.688Z,1.50
2023-05-06T04:26:10.059Z,1.65
2023-05-06T04:28:37.282Z,1.67
2023-05-06T04:31:04.946Z,1.58
2023-05-06T04:33:32.778Z,1.38
2023-05-06T04:36:00.373Z,1.40
2023-05-06T04:38:30.557Z,1.48
2023-05-06T04:40:57.710Z,1.30
2023-05-06T04:43:26.617Z,1.60
2023-05-06T04:45:54.271Z,1.48
2023-05-06T04:48:22.360Z,1.40
2023-05-06T04:50:50.268Z,1.50
2023-05-06T04:53:17.761Z,1.30
2023-05-06T04:55:44.987Z,1.42
2023-05-06T04:58:12.209Z,1.23
2023-05-06T05:00:39.505Z,1.30
2023-05-06T05:03:06.770Z,1.50
2023-05-06T05:05:34.715Z,1.35
2023-05-06T05:08:01.935Z,1.25
2023-05-06T05:10:29.171Z,1.13
2023-05-06T05:12:56.402Z,1.27
2023-05-06T05:15:23.721Z,1.20
2023-05-06T05:17:51.353Z,1.30
2023-05-06T05:20:18.617Z,1.50
2023-05-06T05:22:45.793Z,1.48
2023-05-06T05:25:13.263Z,1.45
2023-05-06T05:27:42.240Z,1.40
2023-05-06T05:30:09.929Z,1.35
2023-05-06T05:32:37.127Z,1.50
2023-05-06T05:35:04.648Z,1.42
2023-05-06T05:37:31.936Z,1.20
2023-05-06T05:39:59.240Z,1.65
2023-05-06T05:42:26.384Z,1.48
2023-05-06T05:44:53.816Z,1.45
2023-05-06T05:47:21.230Z,1.40
2023-05-06T05:49:48.426Z,1.42
2023-05-06T05:52:15.764Z,1.27
2023-05-06T05:54:42.941Z,1.33
2023-05-06T05:57:10.164Z,1.55
2023-05-06T05:59:37.654Z,1.58
2023-05-06T06:02:05.230Z,1.20
2023-05-06T06:04:32.670Z,1.10
2023-05-06T06:07:01.798Z,1.38
2023-05-06T06:11:56.266Z,1.30
2023-05-06T06:14:23.448Z,1.30
2023-05-06T06:16:50.700Z,1.30
2023-05-06T06:19:17.879Z,1.40
2023-05-06T06:21:45.128Z,1.50
2023-05-06T06:24:13.355Z,1.48
2023-05-06T06:26:40.648Z,1.50
2023-05-06T06:29:07.800Z,1.35
2023-05-06T06:31:35.537Z,1.30
2023-05-06T06:34:06.474Z,1.45
2023-05-06T06:36:33.916Z,1.40
2023-05-06T06:39:01.221Z,1.00
2023-05-06T06:41:28.497Z,1.50
2023-05-06T06:43:55.829Z,1.35
2023-05-06T06:46:23.600Z,1.40
2023-05-06T06:48:51.028Z,1.30
2023-05-06T06:51:18.292Z,1.10
2023-05-06T06:53:48.232Z,1.30
2023-05-06T06:56:16.079Z,1.17
2023-05-06T06:58:43.261Z,1.20
2023-05-06T07:01:11.086Z,1.38
2023-05-06T07:03:38.488Z,1.40
2023-05-06T07:06:05.811Z,1.40
2023-05-06T07:08:32.986Z,1.52
2023-05-06T07:11:00.308Z,1.10
2023-05-06T07:13:27.589Z,1.40
2023-05-06T07:15:54.819Z,1.60
2023-05-06T07:18:22.066Z,1.40
2023-05-06T07:20:49.374Z,1.38
2023-05-06T07:23:16.802Z,1.65
2023-05-06T07:25:43.978Z,1.33
2023-05-06T07:28:11.147Z,1.75
2023-05-06T07:30:39.110Z,1.30
2023-05-06T07:33:06.585Z,1.55
2023-05-06T07:35:34.160Z,1.40
2023-05-06T07:38:01.447Z,1.58
2023-05-06T07:40:28.665Z,1.67
2023-05-06T07:42:56.204Z,1.45
2023-05-06T07:45:24.374Z,1.20
2023-05-06T07:47:51.925Z,1.20
2023-05-06T07:50:19.290Z,1.17
2023-05-06T07:52:46.541Z,1.50
2023-05-06T07:55:13.930Z,1.30
2023-05-06T07:57:41.189Z,1.30
2023-05-06T08:00:10.092Z,1.73
2023-05-06T08:05:08.095Z,1.58
2023-05-06T08:07:35.896Z,1.77
2023-05-06T08:10:04.102Z,1.60
2023-05-06T08:12:31.552Z,1.53
2023-05-06T08:14:58.896Z,1.52
2023-05-06T08:17:26.177Z,2.00
2023-05-06T08:19:53.440Z,2.10
2023-05-06T08:22:20.937Z,1.80
2023-05-06T08:24:48.222Z,2.00
2023-05-06T08:27:15.794Z,2.05
2023-05-06T08:29:43.128Z,2.03
2023-05-06T08:32:10.724Z,2.20
2023-05-06T08:34:38.182Z,2.10
2023-05-06T08:37:06.017Z,1.92
2023-05-06T08:39:33.281Z,2.00
2023-05-06T08:42:06.947Z,1.77
2023-05-06T08:44:34.355Z,2.17
2023-05-06T08:47:01.550Z,2.15
2023-05-06T08:49:28.801Z,2.00
2023-05-06T08:51:57.116Z,1.88
2023-05-06T08:54:28.993Z,1.83
2023-05-06T08:56:58.325Z,1.95
2023-05-06T08:59:26.930Z,2.22
2023-05-06T09:01:54.408Z,2.08
2023-05-06T09:04:21.867Z,1.92
2023-05-06T09:06:49.039Z,1.80
2023-05-06T09:09:16.435Z,1.80
2023-05-06T09:11:43.628Z,2.00
2023-05-06T09:14:16.208Z,2.25
2023-05-06T09:16:45.240Z,2.20
2023-05-06T09:21:42.848Z,2.10
2023-05-06T09:24:11.295Z,2.10
2023-05-06T09:26:40.790Z,1.98
2023-05-06T09:29:08.344Z,2.17
2023-05-06T09:31:44.714Z,2.10
2023-05-06T09:34:12.787Z,2.00
2023-05-06T09:36:40.557Z,2.15
2023-05-06T09:39:10.385Z,2.47
2023-05-06T09:41:38.333Z,3.83
2023-05-06T09:44:06.282Z,3.55
2023-05-06T09:46:33.616Z,3.58
2023-05-06T09:49:01.634Z,3.58
2023-05-06T09:51:28.954Z,3.90
2023-05-06T09:53:57.990Z,3.45
2023-05-06T09:58:53.081Z,3.00
2023-05-06T10:01:32.722Z,3.30
2023-05-06T10:04:06.161Z,3.22
2023-05-06T10:06:35.577Z,3.30
2023-05-06T10:09:03.330Z,3.10
2023-05-06T10:11:31.727Z,2.83
2023-05-06T10:14:00.578Z,2.95
2023-05-06T10:16:28.296Z,3.13
2023-05-06T10:18:56.101Z,3.05
2023-05-06T10:21:27.423Z,2.40
2023-05-06T10:24:14.957Z,2.75
2023-05-06T10:26:43.337Z,2.58
2023-05-06T10:29:11.739Z,2.70
2023-05-06T10:31:45.509Z,2.83
2023-05-06T10:34:13.782Z,2.60
2023-05-06T10:36:43.091Z,2.87
2023-05-06T10:39:13.723Z,2.70
2023-05-06T10:41:41.223Z,2.72
2023-05-06T10:44:09.940Z,2.63
2023-05-06T10:46:59.204Z,2.88
2023-05-06T10:49:26.591Z,2.60
2023-05-06T10:52:12.931Z,2.35
2023-05-06T10:54:49.739Z,2.47
2023-05-06T10:57:17.270Z,2.60
2023-05-06T10:59:48.407Z,2.78
2023-05-06T11:02:19.899Z,2.22
2023-05-06T11:04:52.914Z,2.58
2023-05-06T11:07:24.036Z,2.28
2023-05-06T11:10:03.565Z,2.58
2023-05-06T11:12:50.900Z,2.20
2023-05-06T11:15:23.894Z,2.28
2023-05-06T11:17:51.920Z,2.30
2023-05-06T11:20:23.719Z,2.22
2023-05-06T11:22:51.577Z,2.38
2023-05-06T11:25:40.164Z,2.30
2023-05-06T11:28:14.806Z,2.28
2023-05-06T11:30:43.661Z,2.20
2023-05-06T11:33:20.003Z,2.20
2023-05-06T11:35:47.337Z,2.30
2023-05-06T11:38:14.500Z,1.88
2023-05-06T11:40:44.480Z,2.25
2023-05-06T11:43:15.707Z,2.08
2023-05-06T11:45:50.976Z,2.00
2023-05-06T11:48:19.511Z,1.75
2023-05-06T11:50:50.295Z,1.77
2023-05-06T11:53:19.606Z,1.85
2023-05-06T11:55:47.552Z,1.80
2023-05-06T11:58:20.052Z,1.77
2023-05-06T12:00:55.761Z,1.90
2023-05-06T12:03:27.609Z,1.60
2023-05-06T12:05:55.489Z,1.60
2023-05-06T12:08:28.027Z,1.75
2023-05-06T12:10:57.045Z,1.80
2023-05-06T12:13:24.626Z,1.75
2023-05-06T12:15:53.291Z,1.90
2023-05-06T12:18:21.067Z,1.92
2023-05-06T12:20:48.339Z,1.75
2023-05-06T12:23:16.258Z,1.70
2023-05-06T12:25:49.086Z,2.00
2023-05-06T12:28:17.777Z,1.92
2023-05-06T12:30:45.996Z,2.25
2023-05-06T12:33:13.702Z,2.00
2023-05-06T12:35:41.346Z,2.40
2023-05-06T12:38:13.709Z,2.22
2023-05-06T12:40:42.229Z,2.33
2023-05-06T12:43:10.470Z,2.60
2023-05-06T12:45:41.629Z,1.93
2023-05-06T12:48:16.523Z,2.50
2023-05-06T12:50:45.283Z,2.10
2023-05-06T12:53:13.452Z,2.10
2023-05-06T12:55:45.401Z,2.47
2023-05-06T12:58:17.201Z,1.80
2023-05-06T13:00:44.546Z,2.33
2023-05-06T13:03:12.575Z,2.38
2023-05-06T13:05:39.919Z,2.45
2023-05-06T13:08:07.322Z,2.53
2023-05-06T13:10:34.757Z,2.17
2023-05-06T13:13:01.999Z,2.30
2023-05-06T13:15:29.383Z,2.67
2023-05-06T13:17:57.267Z,2.38
2023-05-06T13:20:25.050Z,1.90
2023-05-06T13:22:55.059Z,2.20
2023-05-06T13:25:22.714Z,1.90
2023-05-06T13:27:50.175Z,2.25
2023-05-06T13:30:18.274Z,2.22
2023-05-06T13:32:46.729Z,2.03
2023-05-06T13:35:14.049Z,2.42
2023-05-06T13:37:41.307Z,2.10
2023-05-06T13:40:09.478Z,2.28
2023-05-06T13:42:37.194Z,2.20
2023-05-06T13:45:04.775Z,2.60
2023-05-06T13:47:34.906Z,2.08
2023-05-06T13:50:03.749Z,2.13
2023-05-06T13:52:31.347Z,1.92
2023-05-06T13:54:59.083Z,2.20
2023-05-06T13:57:26.306Z,2.53
2023-05-06T13:59:53.787Z,2.30
2023-05-06T14:02:21.219Z,2.65
2023-05-06T14:04:48.572Z,2.10
2023-05-06T14:07:15.830Z,2.80
2023-05-06T14:09:43.570Z,2.42
2023-05-06T14:12:11.022Z,2.40
2023-05-06T14:14:38.531Z,2.70
2023-05-06T14:17:05.880Z,2.55
2023-05-06T14:19:33.311Z,2.92
2023-05-06T14:22:00.890Z,2.63
2023-05-06T14:24:28.040Z,2.55
2023-05-06T14:26:55.312Z,2.60
2023-05-06T14:29:22.659Z,2.50
2023-05-06T14:31:52.522Z,2.35
2023-05-06T14:34:20.049Z,2.40
2023-05-06T14:36:47.534Z,2.90
2023-05-06T14:39:14.959Z,2.30
2023-05-06T14:41:42.487Z,2.35
2023-05-06T14:44:09.893Z,2.47
2023-05-06T14:46:37.328Z,2.38
2023-05-06T14:49:04.847Z,2.83
2023-05-06T14:51:34.378Z,2.92
2023-05-06T14:54:01.998Z,2.58
2023-05-06T14:56:29.151Z,2.63
2023-05-06T14:58:56.812Z,2.63
2023-05-06T15:01:24.391Z,2.38
2023-05-06T15:03:53.216Z,2.33
2023-05-06T15:06:20.741Z,2.17
2023-05-06T15:08:48.184Z,2.42
2023-05-06T15:11:15.532Z,2.42
2023-05-06T15:13:42.732Z,2.28
2023-05-06T15:16:11.454Z,2.17
2023-05-06T15:18:41.732Z,2.35
2023-05-06T15:21:09.194Z,2.42
2023-05-06T15:23:37.490Z,2.22
2023-05-06T15:26:05.666Z,2.45
2023-05-06T15:28:33.081Z,2.33
2023-05-06T15:31:00.322Z,2.17
2023-05-06T15:33:27.690Z,2.60
2023-05-06T15:35:55.214Z,2.42
2023-05-06T15:38:22.635Z,2.08
2023-05-06T15:40:51.717Z,2.13
2023-05-06T15:43:23.614Z,2.33
2023-05-06T15:45:51.784Z,2.00
2023-05-06T15:48:19.321Z,2.00
2023-05-06T15:50:46.553Z,1.75
2023-05-06T15:53:13.791Z,1.88
2023-05-06T15:55:45.187Z,2.50
2023-05-06T15:58:16.895Z,2.30
2023-05-06T16:00:44.168Z,2.40
2023-05-06T16:03:12.561Z,2.13
2023-05-06T16:05:41.046Z,2.28
2023-05-06T16:08:08.389Z,2.22
2023-05-06T16:10:35.902Z,2.58
2023-05-06T16:13:03.745Z,1.80
2023-05-06T16:15:31.138Z,1.88
2023-05-06T16:17:58.836Z,1.95
2023-05-06T16:20:26.760Z,2.25
2023-05-06T16:22:54.463Z,2.10
2023-05-06T16:25:22.862Z,2.03
2023-05-06T16:27:50.455Z,1.63
2023-05-06T16:30:18.159Z,1.90
2023-05-06T16:32:45.845Z,1.73
2023-05-06T16:35:13.285Z,2.00
2023-05-06T16:37:43.425Z,1.80
2023-05-06T16:40:12.560Z,2.22
2023-05-06T16:42:39.947Z,1.85
2023-05-06T16:45:07.914Z,1.70
2023-05-06T16:47:35.809Z,1.77
2023-05-06T16:50:04.160Z,1.80
2023-05-06T16:52:32.035Z,1.95
2023-05-06T16:54:59.444Z,2.30
2023-05-06T16:57:26.873Z,4.20
2023-05-06T16:59:54.263Z,4.50
2023-05-06T17:02:21.775Z,4.00
2023-05-06T17:04:49.332Z,3.38
2023-05-06T17:07:17.016Z,3.33
2023-05-06T17:09:44.494Z,3.47
2023-05-06T17:12:11.809Z,3.53
2023-05-06T17:14:41.398Z,3.50
2023-05-06T17:17:08.608Z,3.30
2023-05-06T17:19:36.072Z,2.65
2023-05-06T17:22:03.666Z,3.15
2023-05-06T17:24:31.088Z,2.92
2023-05-06T17:26:58.843Z,3.20
2023-05-06T17:29:26.230Z,3.92
2023-05-06T17:31:53.470Z,6.53
2023-05-06T17:36:49.240Z,5.72
2023-05-06T17:39:16.933Z,5.53
2023-05-06T17:41:44.100Z,6.38
2023-05-06T17:44:12.025Z,6.55
2023-05-06T17:46:39.288Z,5.95
2023-05-06T17:49:06.484Z,5.88
2023-05-06T17:51:34.335Z,5.90
2023-05-06T17:54:01.577Z,6.88
2023-05-06T17:56:28.808Z,6.55
2023-05-06T17:58:56.640Z,6.45
2023-05-06T18:01:24.520Z,6.32
2023-05-06T18:03:52.124Z,6.57
2023-05-06T18:06:19.365Z,6.10
2023-05-06T18:08:46.608Z,6.28
2023-05-06T18:11:13.821Z,6.28
2023-05-06T18:13:41.022Z,6.25
2023-05-06T18:16:08.403Z,6.10
2023-05-06T18:18:35.676Z,6.05
2023-05-06T18:21:02.879Z,5.70
2023-05-06T18:23:30.312Z,6.95
2023-05-06T18:25:57.851Z,5.80
2023-05-06T18:28:25.019Z,5.75
2023-05-06T18:30:52.390Z,5.38
2023-05-06T18:33:20.333Z,5.97
2023-05-06T18:35:47.566Z,5.47
2023-05-06T18:38:26.403Z,5.70
2023-05-06T18:40:53.920Z,5.53
2023-05-06T18:43:21.593Z,5.55
2023-05-06T18:45:48.794Z,4.93
2023-05-06T18:48:16.345Z,5.40
2023-05-06T18:50:43.561Z,5.95
2023-05-06T18:53:10.752Z,5.03
2023-05-06T18:55:38.145Z,5.10
2023-05-06T18:58:06.190Z,5.30
2023-05-06T19:00:33.521Z,4.85
2023-05-06T19:03:01.796Z,5.13
2023-05-06T19:05:29.362Z,5.32
2023-05-06T19:07:56.582Z,4.80
2023-05-06T19:10:23.784Z,5.15
2023-05-06T19:12:51.035Z,4.90
2023-05-06T19:15:19.182Z,4.70
2023-05-06T19:17:46.386Z,4.50
2023-05-06T19:20:14.348Z,4.65
2023-05-06T19:22:41.592Z,4.65
2023-05-06T19:25:09.485Z,4.50
2023-05-06T19:27:36.991Z,4.55
2023-05-06T19:30:04.417Z,4.40
2023-05-06T19:32:32.943Z,4.53
2023-05-06T19:35:07.920Z,4.50
2023-05-06T19:37:36.556Z,4.22
2023-05-06T19:40:04.652Z,4.43
2023-05-06T19:42:33.334Z,3.88
2023-05-06T19:45:06.084Z,3.92
2023-05-06T19:47:33.302Z,4.63
2023-05-06T19:50:00.552Z,4.15
2023-05-06T19:52:30.490Z,4.15
2023-05-06T19:54:58.711Z,4.38
2023-05-06T19:57:27.579Z,4.40
2023-05-06T19:59:55.201Z,4.18
2023-05-06T20:02:23.329Z,3.92
2023-05-06T20:04:50.735Z,3.60
2023-05-06T20:07:17.914Z,4.05
2023-05-06T20:09:45.512Z,3.45
2023-05-06T20:12:12.879Z,3.53
2023-05-06T20:14:40.065Z,3.85
2023-05-06T20:17:07.365Z,3.72
2023-05-06T20:19:34.798Z,3.53
2023-05-06T20:22:02.042Z,3.72
2023-05-06T20:24:29.689Z,4.00
2023-05-06T20:26:58.930Z,3.10
2023-05-06T20:29:26.341Z,3.50
2023-05-06T20:31:53.536Z,3.42
2023-05-06T20:34:21.127Z,3.13
2023-05-06T20:36:48.280Z,3.25
2023-05-06T20:39:15.468Z,3.28
2023-05-06T20:41:42.624Z,3.25
2023-05-06T20:44:09.832Z,3.10
2023-05-06T20:46:37.094Z,2.97
2023-05-06T20:49:04.281Z,3.30
2023-05-06T20:51:31.485Z,3.30
2023-05-06T20:54:00.863Z,2.92
2023-05-06T20:56:28.638Z,3.33
2023-05-06T20:58:56.659Z,2.85
2023-05-06T21:01:25.566Z,3.10
2023-05-06T21:03:52.864Z,2.70
2023-05-06T21:06:20.293Z,3.17
2023-05-06T21:08:47.607Z,3.05
2023-05-06T21:11:14.812Z,2.80
2023-05-06T21:13:42.053Z,2.90
2023-05-06T21:16:09.274Z,3.22
2023-05-06T21:18:36.764Z,3.20
2023-05-06T21:21:04.018Z,3.00
2023-05-06T21:23:31.430Z,2.78
2023-05-06T21:25:59.526Z,2.97
2023-05-06T21:28:26.902Z,2.80
2023-05-06T21:30:54.094Z,2.72
2023-05-06T21:33:21.265Z,3.08
2023-05-06T21:35:48.457Z,2.88
2023-05-06T21:38:15.681Z,2.67
2023-05-06T21:40:42.857Z,2.58
2023-05-06T21:43:10.107Z,2.72
2023-05-06T21:45:37.317Z,2.60
2023-05-06T21:48:04.696Z,3.10
2023-05-06T21:50:32.265Z,2.58
2023-05-06T21:52:59.752Z,2.80
2023-05-06T21:55:27.701Z,3.60
2023-05-06T21:57:54.940Z,3.63
2023-05-06T22:00:22.921Z,3.40
2023-05-06T22:02:50.519Z,3.47
2023-05-06T22:05:18.335Z,2.80
2023-05-06T22:07:45.572Z,3.30
2023-05-06T22:10:13.408Z,4.75
2023-05-06T22:12:40.698Z,4.80
2023-05-06T22:15:08.892Z,5.53
2023-05-06T22:17:36.541Z,5.50
2023-05-06T22:20:04.334Z,5.82
2023-05-06T22:22:32.014Z,5.20
2023-05-06T22:24:59.953Z,4.75
2023-05-06T22:27:27.120Z,4.85
2023-05-06T22:29:54.332Z,4.20
2023-05-06T22:32:21.789Z,4.40
2023-05-06T22:34:49.133Z,3.70
2023-05-06T22:37:16.546Z,4.00
2023-05-06T22:39:43.927Z,3.40
2023-05-06T22:42:11.377Z,3.90
2023-05-06T22:44:38.844Z,3.95
2023-05-06T22:47:06.214Z,4.10
2023-05-06T22:49:33.427Z,3.97
2023-05-06T22:52:00.948Z,3.67
2023-05-06T22:54:28.388Z,3.60
2023-05-06T22:56:55.608Z,4.03
2023-05-06T22:59:23.051Z,3.72
2023-05-06T23:01:50.471Z,3.47
2023-05-06T23:04:17.961Z,3.72
2023-05-06T23:06:46.110Z,3.70
2023-05-06T23:09:13.572Z,3.40
2023-05-06T23:11:40.930Z,3.75
2023-05-06T23:14:08.369Z,3.20
2023-05-06T23:16:35.840Z,3.28
2023-05-06T23:19:03.058Z,3.13
2023-05-06T23:21:30.221Z,3.20
2023-05-06T23:23:57.571Z,3.58
2023-05-06T23:26:24.779Z,3.22
2023-05-06T23:28:52.176Z,3.45
2023-05-06T23:31:19.607Z,3.30
2023-05-06T23:33:46.877Z,3.17
2023-05-06T23:36:14.053Z,3.08
2023-05-06T23:38:41.457Z,2.97
2023-05-06T23:41:08.619Z,3.08
2023-05-06T23:43:35.859Z,3.22
2023-05-06T23:46:03.209Z,3.00
2023-05-06T23:48:30.389Z,2.90
2023-05-06T23:50:57.607Z,2.72
2023-05-06T23:53:24.777Z,3.03
2023-05-06T23:55:51.966Z,3.38
2023-05-06T23:58:19.235Z,3.28
